Flight Track Log - Related Links

Times and Time Zones

All times are in EST time to prevent confusion due to time zone crossing. See the FFT920 flight status page for this flight to view local times or setup timezone preferences in your user account.

Time Position Orientation Groundspeed Altitude Reporting Facility
EST Latitude Longitude Course Direction KTS MPH feet Rate Location/Type
Thu 10:43:15 AM 26.6953 -81.7067 41° Northeast 294 338 6,700  Level Miami Center
Thu 10:44:15 AM 26.7722 -81.7169 353° North 288 331 9,600 2,150 Climbing Miami Center
Thu 10:45:15 AM 26.8617 -81.7275 354° North 301 346 11,000 700 Climbing Miami Center
Thu 10:46:00 AM 27.0797 -81.5206 336° Northwest  Level Estimated
Thu 10:46:15 AM 26.9678 -81.7389 355° North 349 402 11,000  Level Miami Center
Thu 10:47:00 AM 27.1884 -81.4734 41° Northeast  Level Estimated
Thu 10:47:15 AM 27.0733 -81.7619 349° North 382 440 13,300  Level Miami Center
Thu 10:48:15 AM 27.1786 -81.7969 344° North 396 456 15,800 1,950 Climbing Miami Center
Thu 10:49:15 AM 27.2900 -81.8319 344° North 396 456 17,200 1,500 Climbing Miami Center
Thu 10:50:15 AM 27.3892 -81.8667 343° North 403 464 18,800 1,750 Climbing Miami Center
Thu 10:51:15 AM 27.5003 -81.9067 342° North 409 471 20,700 2,550 Climbing Miami Center
Thu 10:52:15 AM 27.6219 -81.9517 342° North 415 478 23,900 1,900 Climbing Miami Center
Thu 10:53:15 AM 27.7333 -81.9872 344° North 415 478 24,500 1,250 Climbing Miami Center
Thu 10:54:15 AM 27.8367 -81.9589 14° North 409 471 26,400 1,700 Climbing Miami Center
Thu 10:55:15 AM 27.9336 -81.8717 38° Northeast 400 460 27,900 1,350 Climbing Miami Center
Thu 10:56:15 AM 28.0325 -81.7867 37° Northeast 422 486 29,100 1,250 Climbing Miami Center
Thu 10:57:15 AM 28.1336 -81.6969 38° Northeast 445 512 30,400 1,400 Climbing Miami Center
Thu 10:58:15 AM 28.2447 -81.6194 32° Northeast 452 520 31,900 1,400 Climbing Miami Center
Thu 10:59:15 AM 28.3703 -81.6083 North 437 503 33,200 1,279 Climbing Miami Center
Thu 11:00:17 AM 28.5025 -81.6028 North 453 521 34,500 1,328 Climbing Jacksonville Center
Thu 11:01:17 AM 28.6275 -81.5964 North 459 528 35,900 1,150 Climbing Jacksonville Center
Thu 11:02:17 AM 28.7464 -81.5903 North 447 514 36,800 850 Climbing Jacksonville Center
Thu 11:03:17 AM 28.8717 -81.5839 North 442 509 37,600 750 Climbing Jacksonville Center
Thu 11:04:17 AM 28.9947 -81.5797 North 442 509 38,300 650 Climbing Jacksonville Center
Thu 11:05:17 AM 29.1156 -81.5733 North 437 503 38,900 350 Climbing Jacksonville Center
Thu 11:06:17 AM 29.2472 -81.5644 North 437 503 39,000 50 Climbing Jacksonville Center
Thu 11:07:17 AM 29.3722 -81.5581 North 432 497 39,000  Level Jacksonville Center
Thu 11:08:17 AM 29.4933 -81.5517 North 437 503 39,000  Level Jacksonville Center
Thu 11:09:17 AM 29.6164 -81.5475 North 437 503 39,000  Level Jacksonville Center
Thu 11:10:17 AM 29.7394 -81.5386 North 437 503 39,000  Level Jacksonville Center
Thu 11:11:17 AM 29.8606 -81.5322 North 437 503 39,000  Level Jacksonville Center
Thu 11:12:17 AM 29.9817 -81.5281 North 437 503 39,000 -50 Level Jacksonville Center
Thu 11:13:17 AM 30.0900 -81.5194 North 442 509 38,900 -50 Descending Jacksonville Center
Thu 11:14:17 AM 30.2131 -81.5128 North 442 509 38,900  Level Jacksonville Center
Thu 11:15:17 AM 30.3342 -81.5064 North 436 502 38,900 50 Level Jacksonville Center
Thu 11:16:17 AM 30.4553 -81.4972 North 436 502 39,000 50 Climbing Jacksonville Center
Thu 11:17:17 AM 30.5742 -81.4883 North 436 502 39,000  Level Jacksonville Center
Thu 11:18:17 AM 30.6950 -81.4792 North 436 502 39,000  Level Jacksonville Center
Thu 11:19:17 AM 30.8181 -81.4678 North 436 502 39,000  Level Jacksonville Center
Thu 11:20:17 AM 30.9369 -81.4589 North 441 507 39,000 -50 Level Jacksonville Center
Thu 11:21:17 AM 31.0600 -81.4494 North 441 507 38,900  Descending Jacksonville Center
Thu 11:22:17 AM 31.1917 -81.4403 North 435 501 39,000 50 Climbing Jacksonville Center
Thu 11:23:17 AM 31.3103 -81.4214 North 435 501 39,000  Level Jacksonville Center
Thu 11:24:17 AM 31.4289 -81.3903 13° North 436 502 39,000  Level Jacksonville Center
Thu 11:25:17 AM 31.5392 -81.3617 12° North 441 507 39,000  Level Jacksonville Center
Thu 11:26:17 AM 31.6725 -81.3278 12° North 441 507 39,000  Level Jacksonville Center
Thu 11:27:17 AM 31.7914 -81.3086 North 434 499 39,000  Level Jacksonville Center
Thu 11:28:17 AM 31.9017 -81.2944 North 434 499 39,000  Level Jacksonville Center
Thu 11:29:17 AM 32.0183 -81.2778 North 434 499 39,000  Level Jacksonville Center
Thu 11:30:17 AM 32.1394 -81.2658 North 434 499 39,000  Level Jacksonville Center
Thu 11:31:17 AM 32.2583 -81.2514 North 429 494 39,000 -50 Level Jacksonville Center
Thu 11:32:17 AM 32.3750 -81.2372 North 424 488 38,900  Descending Jacksonville Center
Thu 11:33:17 AM 32.5064 -81.2225 North 430 495 39,000 50 Climbing Jacksonville Center
Thu 11:34:17 AM 32.6250 -81.2078 North 423 487 39,000 -50 Level Jacksonville Center
Thu 11:35:17 AM 32.7314 -81.1936 North 423 487 38,900  Descending Jacksonville Center
Thu 11:36:17 AM 32.8522 -81.1789 North 423 487 39,000 50 Climbing Jacksonville Center
Thu 11:37:17 AM 32.9708 -81.1569 North 423 487 39,000  Level Jacksonville Center
Thu 11:38:17 AM 33.0825 -81.0853 28° Northeast 429 494 39,000  Level Jacksonville Center
Thu 11:39:17 AM 33.1900 -81.0111 30° Northeast 435 501 39,000  Level Jacksonville Center
Thu 11:40:17 AM 33.2994 -80.9342 30° Northeast 441 507 39,000 -50 Level Jacksonville Center
Thu 11:41:17 AM 33.4089 -80.8622 29° Northeast 446 513 38,900 -50 Descending Jacksonville Center
Thu 11:42:17 AM 33.5244 -80.7797 31° Northeast 441 507 38,900  Level Jacksonville Center
Thu 11:43:17 AM 33.6317 -80.7075 29° Northeast 441 507 38,900 50 Level Jacksonville Center
Thu 11:44:17 AM 33.7389 -80.6322 30° Northeast 441 507 39,000  Climbing Jacksonville Center
Thu 11:45:17 AM 33.8439 -80.5572 31° Northeast 441 507 38,900  Descending Jacksonville Center
Thu 11:46:17 AM 33.9511 -80.4817 30° Northeast 436 502 39,000 50 Climbing Jacksonville Center
Thu 11:47:17 AM 34.0581 -80.4061 30° Northeast 441 507 39,000  Level Jacksonville Center
Thu 11:48:17 AM 34.1631 -80.3328 30° Northeast 436 502 39,000  Level Jacksonville Center
Thu 11:49:17 AM 34.2678 -80.2567 31° Northeast 441 507 39,000  Level Jacksonville Center
Thu 11:50:17 AM 34.3728 -80.1833 30° Northeast 441 507 39,000 -50 Level Jacksonville Center
Thu 11:51:17 AM 34.4794 -80.1069 31° Northeast 441 507 38,900  Descending Jacksonville Center
Thu 11:53:23 AM 34.6975 -79.9519 30° Northeast 463 533 39,000 32 Climbing Washington Center
Thu 11:54:24 AM 34.8044 -79.8742 31° Northeast 458 527 39,000  Level Washington Center
Thu 11:55:24 AM 34.9114 -79.7989 30° Northeast 446 513 39,000  Level Washington Center
Thu 11:56:25 AM 35.0164 -79.7206 31° Northeast 440 506 39,000  Level Washington Center
Thu 11:57:25 AM 35.1192 -79.6472 30° Northeast 435 501 39,000  Level Washington Center
Thu 11:58:25 AM 35.2261 -79.5686 31° Northeast 435 501 39,000  Level Washington Center
Thu 11:59:23 AM 35.3308 -79.4925 31° Northeast 435 501 39,000  Level Washington Center
Thu 12:00:25 PM 35.4378 -79.4161 30° Northeast 435 501 39,000  Level Washington Center
Thu 12:01:25 PM 35.5339 -79.3442 31° Northeast 443 510 39,000  Level Washington Center
Thu 12:02:23 PM 35.6428 -79.2675 30° Northeast 443 510 39,000  Level Washington Center
Thu 12:03:24 PM 35.7494 -79.1878 31° Northeast 443 510 39,000  Level Washington Center
Thu 12:04:25 PM 35.8561 -79.1108 30° Northeast 443 510 39,000  Level Washington Center
Thu 12:05:25 PM 35.9628 -79.0281 32° Northeast 438 504 39,000  Level Washington Center
Thu 12:06:23 PM 36.0736 -78.9481 30° Northeast 438 504 39,000  Level Washington Center
Thu 12:07:24 PM 36.1781 -78.8653 33° Northeast 443 510 39,000  Level Washington Center
Thu 12:08:24 PM 36.2867 -78.7872 30° Northeast 438 504 39,000  Level Washington Center
Thu 12:09:25 PM 36.3953 -78.7039 32° Northeast 438 504 39,000  Level Washington Center
Thu 12:10:25 PM 36.5017 -78.6228 31° Northeast 438 504 39,000  Level Washington Center
Thu 12:11:22 PM 36.6100 -78.5417 31° Northeast 443 510 39,000  Level Washington Center
Thu 12:12:23 PM 36.7228 -78.4528 32° Northeast 443 510 39,000  Level Washington Center
Thu 12:13:24 PM 36.8311 -78.3686 32° Northeast 443 510 39,000  Level Washington Center
Thu 12:14:25 PM 36.9394 -78.2867 31° Northeast 443 510 39,000  Level Washington Center
Thu 12:15:25 PM 37.0350 -78.2094 33° Northeast 448 516 39,000  Level Washington Center
Thu 12:16:25 PM 37.1517 -78.1219 31° Northeast 448 516 39,000  Level Washington Center
Thu 12:17:23 PM 37.2578 -78.0394 32° Northeast 442 509 39,000 -202 Level Washington Center
Thu 12:18:24 PM 37.3658 -77.9567 31° Northeast 442 509 38,600 -541 Descending Washington Center
Thu 12:19:25 PM 37.4717 -77.8736 32° Northeast 442 509 37,900 -694 Descending Washington Center
Thu 12:20:25 PM 37.5775 -77.7850 34° Northeast 447 514 37,200 -1,780 Descending Washington Center
Thu 12:21:23 PM 37.6814 -77.6911 36° Northeast 447 514 34,400 -2,949 Descending Washington Center
Thu 12:22:23 PM 37.7894 -77.5914 36° Northeast 463 533 31,400 -1,700 Descending Washington Center
Thu 12:23:23 PM 37.8997 -77.4917 35° Northeast 474 545 31,000 -198 Descending Washington Center
Thu 12:24:24 PM 38.0097 -77.3917 36° Northeast 484 557 31,000  Level Washington Center
Thu 12:25:24 PM 38.1153 -77.2942 36° Northeast 479 551 31,000  Level Washington Center
Thu 12:26:23 PM 38.2250 -77.1908 36° Northeast 484 557 31,000  Level Washington Center
Thu 12:27:23 PM 38.3347 -77.0925 35° Northeast 484 557 31,000 -446 Level Washington Center
Thu 12:28:24 PM 38.4425 -76.9914 36° Northeast 484 557 30,100 -1,426 Descending Washington Center
Thu 12:29:25 PM 38.5497 -76.8925 36° Northeast 484 557 28,100 -2,471 Descending Washington Center
Thu 12:30:23 PM 38.6550 -76.7906 37° Northeast 479 551 25,200 -2,695 Descending Washington Center
Thu 12:31:23 PM 38.7253 -76.6481 58° Northeast 462 532 22,800 -2,262 Descending Washington Center
Thu 12:32:25 PM 38.7578 -76.4889 75° East 448 516 20,600 -2,100 Descending Washington Center
Thu 12:33:23 PM 38.7900 -76.3400 74° East 448 516 18,600 -1,714 Descending Washington Center
Thu 12:34:24 PM 38.8181 -76.1964 76° East 428 493 17,200 -1,574 Descending Washington Center
Thu 12:35:25 PM 38.8478 -76.0661 74° East 423 487 15,400 -1,160 Descending Washington Center
Thu 12:36:23 PM 38.8753 -75.9250 76° East 408 470 14,900 -252 Descending Washington Center
Thu 12:37:24 PM 38.9256 -75.8050 62° Northeast 380 437 14,900 -744 Level Washington Center
Thu 12:38:24 PM 39.0111 -75.7253 36° Northeast 373 429 13,400 -822 Descending Washington Center
Thu 12:40:41 PM 39.2500 -75.6667 11° North 354 407 12,200 -440 Descending Philadelphia TRACON
Thu 12:41:35 PM 39.3167 -75.6167 30° Northeast 311 358 12,000 -95 Descending Philadelphia TRACON
Thu 12:42:47 PM 39.4000 -75.5333 38° Northeast 320 368 12,000  Level Philadelphia TRACON
Thu 12:43:41 PM 39.4500 -75.4500 52° Northeast 320 368 12,000  Level Philadelphia TRACON
Thu 12:44:41 PM 39.5000 -75.3667 52° Northeast 320 368 12,000  Level Philadelphia TRACON
Thu 12:45:53 PM 39.5667 -75.2500 53° Northeast 319 367 12,000  Level Philadelphia TRACON
Thu 12:46:47 PM 39.6167 -75.1833 46° Northeast 319 367 12,000 -389 Level Philadelphia TRACON
Thu 12:47:41 PM 39.6667 -75.1000 52° Northeast 315 362 11,300 -1,150 Descending Philadelphia TRACON
Thu 12:48:47 PM 39.7333 -75.0000 49° Northeast 306 352 9,700 -1,476 Descending Philadelphia TRACON
Thu 12:49:47 PM 39.7833 -74.9167 52° Northeast 301 346 8,200 -1,714 Descending Philadelphia TRACON
Thu 12:50:53 PM 39.8333 -74.8500 46° Northeast 285 328 6,100 -1,722 Descending Philadelphia TRACON
Thu 12:51:35 PM 39.9000 -74.8500 360° North 263 303 5,100 -579 Descending Philadelphia TRACON
Thu 12:52:47 PM 39.9833 -74.8667 351° North 270 311 5,000 -429 Descending Philadelphia TRACON
Thu 12:53:41 PM 40.0500 -74.8833 349° North 268 308 4,200 -500 Descending Philadelphia TRACON
Thu 12:54:47 PM 40.1333 -74.8833 360° North 234 269 4,000 -700 Descending Philadelphia TRACON
Thu 12:55:41 PM 40.1833 -74.9000 346° North 233 268 2,800 -1,263 Descending Philadelphia TRACON
Thu 12:56:41 PM 40.2333 -74.8667 27° Northeast 186 214 1,600 -1,200 Descending Philadelphia TRACON
Thu 12:58:00 PM 40.2667 -74.8000 21° North  Level FlightAware Approximate
Thu 01:05:00 PM 40.2767 -74.8135 21° North  Level Estimated
Thu 01:06:00 PM 40.2767 -74.8135 21° North  Level Estimated

Login

Don't have an account? Register now (free) for customized features, flight alerts, and more!